createdAt,value
2023-04-13T00:04:37.035Z,0.40
2023-04-13T00:09:38.330Z,0.63
2023-04-13T00:14:39.613Z,0.60
2023-04-13T00:19:41.382Z,0.60
2023-04-13T00:24:44.025Z,0.77
2023-04-13T00:29:45.599Z,0.70
2023-04-13T00:34:46.891Z,0.60
2023-04-13T00:39:48.169Z,0.40
2023-04-13T00:44:49.616Z,0.60
2023-04-13T00:49:50.877Z,0.60
2023-04-13T00:54:52.403Z,0.68
2023-04-13T00:59:53.928Z,0.50
2023-04-13T01:04:55.920Z,0.80
2023-04-13T01:10:16.993Z,0.50
2023-04-13T01:15:18.814Z,0.70
2023-04-13T01:20:20.283Z,0.70
2023-04-13T01:25:31.585Z,0.50
2023-04-13T01:30:33.820Z,0.57
2023-04-13T01:35:35.641Z,0.60
2023-04-13T01:40:40.537Z,0.70
2023-04-13T01:45:46.855Z,0.60
2023-04-13T01:51:08.426Z,0.70
2023-04-13T01:56:10.101Z,0.67
2023-04-13T02:01:12.599Z,0.70
2023-04-13T02:06:14.594Z,0.60
2023-04-13T02:11:15.983Z,1.17
2023-04-13T02:16:17.292Z,1.15
2023-04-13T02:21:18.646Z,0.50
2023-04-13T02:26:22.412Z,1.08
2023-04-13T02:31:23.817Z,1.10
2023-04-13T02:36:25.192Z,0.60
2023-04-13T02:41:27.038Z,0.63
2023-04-13T02:46:30.045Z,0.80
2023-04-13T02:51:36.294Z,0.80
2023-04-13T02:56:37.988Z,0.70
2023-04-13T03:01:39.705Z,1.10
2023-04-13T03:06:44.111Z,0.73
2023-04-13T03:11:45.434Z,0.80
2023-04-13T03:16:47.103Z,0.60
2023-04-13T03:21:48.426Z,0.80
2023-04-13T03:26:49.748Z,0.60
2023-04-13T03:31:51.473Z,0.77
2023-04-13T03:36:53.080Z,1.33
2023-04-13T03:41:54.767Z,0.50
2023-04-13T03:46:56.314Z,0.73
2023-04-13T03:51:57.689Z,0.50
2023-04-13T03:57:00.576Z,0.80
2023-04-13T04:02:02.915Z,1.10
2023-04-13T04:07:04.356Z,0.80
2023-04-13T04:12:05.675Z,0.77
2023-04-13T04:17:06.918Z,0.90
2023-04-13T04:22:08.923Z,1.00
2023-04-13T04:27:10.678Z,0.87
2023-04-13T04:32:12.571Z,1.33
2023-04-13T04:37:20.402Z,2.30
2023-04-13T04:42:22.241Z,1.15
2023-04-13T04:47:24.407Z,1.30
2023-04-13T04:52:25.765Z,1.10
2023-04-13T04:57:29.480Z,1.25
2023-04-13T05:02:31.216Z,1.60
2023-04-13T05:07:32.666Z,1.00
2023-04-13T05:12:35.351Z,0.80
2023-04-13T05:17:38.558Z,1.03
2023-04-13T05:22:39.859Z,0.90
2023-04-13T05:27:41.105Z,1.13
2023-04-13T05:32:43.586Z,1.30
2023-04-13T05:37:46.736Z,1.10
2023-04-13T05:42:48.070Z,1.30
2023-04-13T05:47:49.373Z,1.50
2023-04-13T05:52:50.644Z,1.17
2023-04-13T05:57:53.121Z,1.23
2023-04-13T06:02:54.663Z,1.42
2023-04-13T06:07:56.300Z,1.43
2023-04-13T06:13:00.227Z,1.50
2023-04-13T06:18:01.771Z,1.30
2023-04-13T06:23:03.160Z,2.42
2023-04-13T06:28:04.666Z,1.30
2023-04-13T06:33:06.216Z,1.47
2023-04-13T06:38:10.105Z,1.27
2023-04-13T06:43:26.460Z,0.97
2023-04-13T06:48:30.755Z,1.35
2023-04-13T06:53:32.137Z,1.50
2023-04-13T06:58:33.466Z,1.13
2023-04-13T07:03:35.173Z,1.77
2023-04-13T07:08:36.669Z,1.53
2023-04-13T07:13:38.089Z,2.20
2023-04-13T07:18:39.377Z,1.88
2023-04-13T07:23:42.407Z,1.20
2023-04-13T07:28:43.789Z,1.33
2023-04-13T07:33:45.058Z,2.00
2023-04-13T07:38:46.437Z,1.08
2023-04-13T07:43:47.906Z,1.60
2023-04-13T07:48:49.280Z,1.30
2023-04-13T07:53:52.229Z,1.50
2023-04-13T07:58:53.726Z,1.13
2023-04-13T08:03:55.285Z,1.35
2023-04-13T08:08:56.994Z,1.77
2023-04-13T08:13:58.380Z,0.90
2023-04-13T08:19:01.525Z,1.45
2023-04-13T08:24:02.906Z,1.67
2023-04-13T08:29:04.264Z,2.80
2023-04-13T08:34:05.549Z,1.15
2023-04-13T08:39:10.151Z,1.40
2023-04-13T08:44:16.113Z,1.55
2023-04-13T08:49:17.553Z,1.50
2023-04-13T08:54:18.855Z,1.33
2023-04-13T08:59:21.255Z,1.48
2023-04-13T09:04:25.694Z,1.50
2023-04-13T09:09:27.276Z,1.25
2023-04-13T09:14:28.969Z,1.40
2023-04-13T09:19:31.606Z,1.20
2023-04-13T09:24:39.838Z,1.38
2023-04-13T09:29:48.122Z,1.53
2023-04-13T09:35:05.933Z,2.33
2023-04-13T09:40:16.824Z,2.15
2023-04-13T09:45:18.143Z,1.60
2023-04-13T09:50:23.612Z,1.23
2023-04-13T09:55:24.972Z,1.60
2023-04-13T10:00:26.385Z,1.70
2023-04-13T10:05:29.802Z,1.60
2023-04-13T10:10:31.213Z,3.90
2023-04-13T10:16:00.497Z,1.33
2023-04-13T10:21:03.932Z,2.27
2023-04-13T10:26:06.574Z,1.40
2023-04-13T10:31:08.896Z,1.92
2023-04-13T10:36:10.562Z,1.30
2023-04-13T10:41:22.749Z,1.20
2023-04-13T10:46:24.044Z,1.40
2023-04-13T10:51:46.077Z,3.90
2023-04-13T10:56:56.280Z,1.75
2023-04-13T11:01:58.255Z,2.13
2023-04-13T11:06:59.639Z,2.00
2023-04-13T11:12:01.089Z,1.80
2023-04-13T11:17:02.562Z,1.45
2023-04-13T11:22:03.895Z,1.65
2023-04-13T11:27:08.314Z,2.33
2023-04-13T11:32:16.318Z,2.25
2023-04-13T11:37:19.621Z,1.90
2023-04-13T11:42:21.422Z,1.30
2023-04-13T11:47:22.752Z,2.90
2023-04-13T11:52:25.083Z,1.70
2023-04-13T11:57:27.051Z,1.20
2023-04-13T12:02:29.804Z,1.73
2023-04-13T12:07:33.383Z,1.50
2023-04-13T12:17:48.025Z,1.27
2023-04-13T12:23:00.333Z,2.05
2023-04-13T12:28:06.924Z,1.80
2023-04-13T12:33:08.250Z,1.75
2023-04-13T12:38:12.585Z,1.50
2023-04-13T12:43:14.490Z,2.83
2023-04-13T12:48:16.945Z,1.85
2023-04-13T12:53:18.269Z,1.40
2023-04-13T12:58:19.567Z,1.10
2023-04-13T13:03:21.358Z,0.77
2023-04-13T13:08:22.800Z,0.80
2023-04-13T13:13:24.060Z,1.00
2023-04-13T13:18:32.516Z,1.00
2023-04-13T13:23:40.484Z,0.93
2023-04-13T13:28:42.375Z,1.50
2023-04-13T13:33:43.662Z,1.40
2023-04-13T13:38:46.585Z,1.40
2023-04-13T13:43:47.888Z,1.40
2023-04-13T13:48:49.185Z,1.40
2023-04-13T13:53:50.503Z,1.33
2023-04-13T13:58:51.949Z,1.20
2023-04-13T14:03:53.421Z,0.90
2023-04-13T14:08:56.011Z,1.40
2023-04-13T14:14:07.912Z,1.55
2023-04-13T14:19:18.031Z,1.70
2023-04-13T14:24:19.307Z,1.80
2023-04-13T14:29:20.576Z,1.70
2023-04-13T14:34:21.905Z,1.80
2023-04-13T14:39:25.892Z,1.75
2023-04-13T14:44:27.308Z,1.35
2023-04-13T14:49:28.605Z,1.30
2023-04-13T14:54:29.914Z,1.25
2023-04-13T14:59:31.487Z,1.00
2023-04-13T15:04:32.888Z,1.55
2023-04-13T15:09:34.485Z,1.73
2023-04-13T15:14:36.113Z,1.77
2023-04-13T15:19:37.371Z,1.52
2023-04-13T15:24:38.700Z,1.40
2023-04-13T15:29:40.102Z,1.83
2023-04-13T15:34:41.342Z,1.33
2023-04-13T15:39:42.625Z,1.50
2023-04-13T15:44:43.930Z,1.00
2023-04-13T15:49:45.235Z,1.85
2023-04-13T15:54:46.733Z,1.40
2023-04-13T15:59:47.971Z,3.83
2023-04-13T16:04:49.364Z,1.63
2023-04-13T16:09:58.175Z,1.80
2023-04-13T16:14:59.676Z,1.80
2023-04-13T16:20:13.981Z,2.07
2023-04-13T16:25:15.983Z,1.80
2023-04-13T16:30:18.077Z,1.73
2023-04-13T16:35:19.438Z,1.73
2023-04-13T16:40:20.740Z,1.58
2023-04-13T16:45:22.164Z,1.53
2023-04-13T16:55:31.319Z,1.00
2023-04-13T17:00:33.041Z,1.40
2023-04-13T17:05:34.389Z,1.40
2023-04-13T17:10:35.713Z,1.20
2023-04-13T17:15:37.133Z,1.50
2023-04-13T17:20:39.627Z,1.67
2023-04-13T17:25:41.494Z,1.40
2023-04-13T17:30:42.846Z,1.50
2023-04-13T17:35:44.170Z,1.30
2023-04-13T17:40:46.036Z,0.90
2023-04-13T17:45:47.356Z,1.02
2023-04-13T17:50:49.522Z,1.70
2023-04-13T17:55:50.917Z,2.30
2023-04-13T18:00:52.229Z,2.50
2023-04-13T18:05:53.618Z,2.40
2023-04-13T18:10:56.698Z,2.63
2023-04-13T18:16:04.132Z,2.10
2023-04-13T18:21:05.602Z,2.10
2023-04-13T18:26:07.169Z,2.63
2023-04-13T18:31:09.209Z,5.13
2023-04-13T18:36:13.886Z,3.85
2023-04-13T18:41:15.240Z,2.60
2023-04-13T18:46:16.661Z,3.10
2023-04-13T18:51:18.212Z,4.50
2023-04-13T18:56:22.824Z,2.35
2023-04-13T19:01:24.223Z,5.93
2023-04-13T19:06:26.876Z,4.00
2023-04-13T19:11:28.195Z,4.72
2023-04-13T19:16:29.583Z,3.93
2023-04-13T19:21:31.114Z,2.35
2023-04-13T19:26:32.417Z,2.58
2023-04-13T19:31:38.121Z,2.90
2023-04-13T19:36:39.881Z,3.60
2023-04-13T19:41:41.747Z,4.40
2023-04-13T19:46:43.275Z,3.67
2023-04-13T19:51:44.659Z,2.53
2023-04-13T19:56:45.992Z,2.07
2023-04-13T20:01:47.487Z,2.33
2023-04-13T20:06:48.824Z,2.20
2023-04-13T20:11:50.212Z,2.17
2023-04-13T20:16:51.494Z,2.45
2023-04-13T20:21:54.258Z,3.20
2023-04-13T20:26:55.556Z,2.85
2023-04-13T20:31:57.228Z,2.70
2023-04-13T20:36:58.911Z,2.90
2023-04-13T20:42:03.989Z,3.17
2023-04-13T20:47:05.441Z,3.40
2023-04-13T20:52:07.256Z,4.50
2023-04-13T20:57:09.324Z,2.93
2023-04-13T21:02:10.799Z,2.72
2023-04-13T21:07:13.877Z,2.10
2023-04-13T21:12:15.430Z,2.20
2023-04-13T21:17:16.766Z,2.25
2023-04-13T21:22:20.781Z,2.00
2023-04-13T21:27:22.471Z,2.78
2023-04-13T21:32:23.836Z,3.58
2023-04-13T21:37:25.208Z,2.60
2023-04-13T21:42:26.523Z,2.47
2023-04-13T21:47:27.966Z,2.47
2023-04-13T21:52:29.354Z,2.67
2023-04-13T21:57:30.732Z,2.50
2023-04-13T22:02:32.184Z,2.80
2023-04-13T22:07:42.243Z,2.67
2023-04-13T22:12:44.842Z,2.50
2023-04-13T22:17:46.813Z,2.50
2023-04-13T22:22:48.163Z,2.50
2023-04-13T22:27:50.420Z,2.70
2023-04-13T22:32:52.888Z,2.67
2023-04-13T22:37:54.176Z,4.30
2023-04-13T22:42:55.547Z,5.95
2023-04-13T22:47:56.951Z,5.07
2023-04-13T22:52:58.263Z,5.73
2023-04-13T22:57:59.593Z,4.45
2023-04-13T23:03:01.242Z,3.27
2023-04-13T23:08:02.777Z,3.45
2023-04-13T23:13:04.713Z,3.78
2023-04-13T23:18:06.027Z,3.63
2023-04-13T23:23:07.416Z,3.30
2023-04-13T23:28:08.721Z,3.60
2023-04-13T23:33:10.414Z,3.17
2023-04-13T23:38:11.691Z,2.60
2023-04-13T23:43:13.034Z,2.57
2023-04-13T23:48:14.352Z,2.78
2023-04-13T23:53:16.458Z,2.87
2023-04-13T23:58:17.758Z,2.63
